CheckWX is a tool to help pilots better visualize weather data.  It is not intended as a substitute for an official pre-flight weather briefing.

15:08:33 UTC

KTCL TAF
Tuscaloosa Regional Airport
Tuscaloosa, Alabama, USA
KTCL 171141Z 1712/1812 01003KT P6SM SKC FM171800 35006KT P6SM SKC FM172200 04006KT P6SM SKC FM180100 00000KT P6SM SKC

Aug-17@
12:00 UTC

Aug-17 @ 12:00 UTC

Aug-17@
18:00 UTC

Aug-17 @ 18:00 UTC

KTCL 171141Z 1712/1812 01003KT P6SM SKC
Wind
  • 010° at 3 KTS
Cloud Levels
  • Clear skies

Aug-17@
18:00 UTC

Aug-17 @ 18:00 UTC

Aug-17@
22:00 UTC

Aug-17 @ 22:00 UTC

FM171800 35006KT P6SM SKC

From

From Standard forecast or significant change

Wind
  • 350° at 6 KTS
Cloud Levels
  • Clear skies

Aug-17@
22:00 UTC

Aug-17 @ 22:00 UTC

Aug-18@
01:00 UTC

Aug-18 @ 01:00 UTC

FM172200 04006KT P6SM SKC

From

From Standard forecast or significant change

Wind
  • 040° at 6 KTS
Cloud Levels
  • Clear skies

Aug-18@
01:00 UTC

Aug-18 @ 01:00 UTC

Aug-18@
12:00 UTC

Aug-18 @ 12:00 UTC

FM180100 00000KT P6SM SKC

From

From Standard forecast or significant change

Cloud Levels
  • Clear skies